createdAt,value
2024-03-20T00:00:57.664Z,546.00
2024-03-20T00:01:57.744Z,545.00
2024-03-20T00:02:57.729Z,545.00
2024-03-20T00:03:57.873Z,545.00
2024-03-20T00:04:57.951Z,547.00
2024-03-20T00:05:57.976Z,549.00
2024-03-20T00:06:58.066Z,549.00
2024-03-20T00:07:58.124Z,549.00
2024-03-20T00:08:58.224Z,550.00
2024-03-20T00:09:58.293Z,548.00
2024-03-20T00:10:58.361Z,550.00
2024-03-20T00:11:58.437Z,546.00
2024-03-20T00:12:58.478Z,546.00
2024-03-20T00:13:58.569Z,544.00
2024-03-20T00:14:58.633Z,542.00
2024-03-20T00:15:58.711Z,542.00
2024-03-20T00:16:58.762Z,544.00
2024-03-20T00:17:58.827Z,542.00
2024-03-20T00:18:58.901Z,544.00
2024-03-20T00:19:58.989Z,544.00
2024-03-20T00:20:59.059Z,544.00
2024-03-20T00:21:59.170Z,542.00
2024-03-20T00:22:59.211Z,543.00
2024-03-20T00:23:59.330Z,542.00
2024-03-20T00:24:59.318Z,539.00
2024-03-20T00:25:59.411Z,541.00
2024-03-20T00:26:59.467Z,540.00
2024-03-20T00:27:59.537Z,538.00
2024-03-20T00:28:59.587Z,539.00
2024-03-20T00:29:59.688Z,540.00
2024-03-20T00:30:59.762Z,541.00
2024-03-20T00:31:59.817Z,542.00
2024-03-20T00:32:59.872Z,543.00
2024-03-20T00:33:59.962Z,541.00
2024-03-20T00:35:00.031Z,538.00
2024-03-20T00:36:00.123Z,540.00
2024-03-20T00:37:00.197Z,542.00
2024-03-20T00:38:00.294Z,540.00
2024-03-20T00:39:00.380Z,541.00
2024-03-20T00:40:00.435Z,539.00
2024-03-20T00:41:00.491Z,538.00
2024-03-20T00:42:00.584Z,537.00
2024-03-20T00:43:00.652Z,540.00
2024-03-20T00:44:00.706Z,539.00
2024-03-20T00:45:00.809Z,539.00
2024-03-20T00:46:00.920Z,539.00
2024-03-20T00:47:00.946Z,536.00
2024-03-20T00:48:01.033Z,536.00
2024-03-20T00:49:01.126Z,536.00
2024-03-20T00:50:01.159Z,535.00
2024-03-20T00:51:01.270Z,538.00
2024-03-20T00:52:01.362Z,538.00
2024-03-20T00:53:01.395Z,537.00
2024-03-20T00:54:01.528Z,540.00
2024-03-20T00:55:01.560Z,539.00
2024-03-20T00:56:01.675Z,543.00
2024-03-20T00:57:01.782Z,542.00
2024-03-20T00:58:01.797Z,543.00
2024-03-20T00:59:01.869Z,543.00
2024-03-20T01:00:01.924Z,542.00
2024-03-20T01:01:02.038Z,540.00
2024-03-20T01:02:02.088Z,541.00
2024-03-20T01:03:02.194Z,540.00
2024-03-20T01:04:02.234Z,538.00
2024-03-20T01:05:02.333Z,538.00
2024-03-20T01:06:02.402Z,538.00
2024-03-20T01:07:02.474Z,537.00
2024-03-20T01:08:02.527Z,536.00
2024-03-20T01:09:02.686Z,536.00
2024-03-20T01:10:02.694Z,537.00
2024-03-20T01:11:02.800Z,536.00
2024-03-20T01:12:02.850Z,536.00
2024-03-20T01:13:02.943Z,538.00
2024-03-20T01:14:03.033Z,539.00
2024-03-20T01:15:03.108Z,538.00
2024-03-20T01:16:03.184Z,539.00
2024-03-20T01:17:03.227Z,537.00
2024-03-20T01:18:03.298Z,534.00
2024-03-20T01:19:03.361Z,533.00
2024-03-20T01:20:03.458Z,535.00
2024-03-20T01:21:03.529Z,536.00
2024-03-20T01:22:03.562Z,536.00
2024-03-20T01:23:03.688Z,536.00
2024-03-20T01:24:03.744Z,535.00
2024-03-20T01:25:03.840Z,534.00
2024-03-20T01:26:03.900Z,532.00
2024-03-20T01:27:03.977Z,527.00
2024-03-20T01:28:04.046Z,529.00
2024-03-20T01:29:04.099Z,530.00
2024-03-20T01:30:04.198Z,531.00
2024-03-20T01:31:04.254Z,532.00
2024-03-20T01:32:04.366Z,534.00
2024-03-20T01:33:04.425Z,535.00
2024-03-20T01:34:04.517Z,536.00
2024-03-20T01:35:04.579Z,536.00
2024-03-20T01:36:04.661Z,536.00
2024-03-20T01:37:04.754Z,536.00
2024-03-20T01:38:04.822Z,535.00
2024-03-20T01:39:04.919Z,535.00
2024-03-20T01:40:05.007Z,537.00
2024-03-20T01:41:05.085Z,536.00
2024-03-20T01:42:05.120Z,537.00
2024-03-20T01:43:05.165Z,538.00
2024-03-20T01:44:05.259Z,540.00
2024-03-20T01:45:05.324Z,539.00
2024-03-20T01:46:05.422Z,540.00
2024-03-20T01:47:05.489Z,540.00
2024-03-20T01:48:05.563Z,542.00
2024-03-20T01:49:05.635Z,545.00
2024-03-20T01:50:05.710Z,545.00
2024-03-20T01:51:05.796Z,547.00
2024-03-20T01:52:05.850Z,548.00
2024-03-20T01:53:05.902Z,546.00
2024-03-20T01:54:05.982Z,547.00
2024-03-20T01:55:06.100Z,547.00
2024-03-20T01:56:06.483Z,546.00
2024-03-20T01:57:06.242Z,549.00
2024-03-20T01:58:06.338Z,548.00
2024-03-20T01:59:06.379Z,542.00
2024-03-20T02:00:06.447Z,541.00
2024-03-20T02:01:06.512Z,540.00
2024-03-20T02:02:06.588Z,539.00
2024-03-20T02:03:06.653Z,541.00
2024-03-20T02:04:06.743Z,541.00
2024-03-20T02:05:06.796Z,542.00
2024-03-20T02:06:06.903Z,544.00
2024-03-20T02:07:06.965Z,544.00
2024-03-20T02:08:06.994Z,545.00
2024-03-20T02:09:07.100Z,544.00
2024-03-20T02:10:07.204Z,545.00
2024-03-20T02:11:07.239Z,542.00
2024-03-20T02:12:07.318Z,545.00
2024-03-20T02:13:07.349Z,547.00
2024-03-20T02:14:07.442Z,545.00
2024-03-20T02:15:07.622Z,543.00
2024-03-20T02:16:07.658Z,541.00
2024-03-20T02:17:07.674Z,539.00
2024-03-20T02:18:07.800Z,538.00
2024-03-20T02:19:07.818Z,537.00
2024-03-20T02:20:07.936Z,539.00
2024-03-20T02:21:08.017Z,540.00
2024-03-20T02:22:08.105Z,540.00
2024-03-20T02:23:08.202Z,541.00
2024-03-20T02:24:08.247Z,541.00
2024-03-20T02:25:08.313Z,543.00
2024-03-20T02:26:08.422Z,542.00
2024-03-20T02:27:08.467Z,543.00
2024-03-20T02:28:08.647Z,542.00
2024-03-20T02:29:08.629Z,543.00
2024-03-20T02:30:08.757Z,542.00
2024-03-20T02:31:08.809Z,541.00
2024-03-20T02:32:08.871Z,540.00
2024-03-20T02:33:08.961Z,542.00
2024-03-20T02:34:09.039Z,541.00
2024-03-20T02:35:09.149Z,542.00
2024-03-20T02:36:09.210Z,541.00
2024-03-20T02:37:09.263Z,543.00
2024-03-20T02:38:10.045Z,544.00
2024-03-20T02:39:09.425Z,544.00
2024-03-20T02:40:09.545Z,544.00
2024-03-20T02:41:09.592Z,543.00
2024-03-20T02:42:09.659Z,541.00
2024-03-20T02:43:09.726Z,539.00
2024-03-20T02:44:09.816Z,541.00
2024-03-20T02:45:09.927Z,541.00
2024-03-20T02:46:09.997Z,540.00
2024-03-20T02:47:10.039Z,542.00
2024-03-20T02:48:10.101Z,542.00
2024-03-20T02:49:10.233Z,545.00
2024-03-20T02:50:10.277Z,544.00
2024-03-20T02:51:10.382Z,546.00
2024-03-20T02:52:10.452Z,547.00
2024-03-20T02:53:10.546Z,545.00
2024-03-20T02:54:10.608Z,544.00
2024-03-20T02:55:10.684Z,543.00
2024-03-20T02:56:10.786Z,543.00
2024-03-20T02:57:10.854Z,547.00
2024-03-20T02:58:10.959Z,547.00
2024-03-20T02:59:11.024Z,548.00
2024-03-20T03:00:11.117Z,547.00
2024-03-20T03:01:11.155Z,547.00
2024-03-20T03:02:11.358Z,545.00
2024-03-20T03:03:11.335Z,546.00
2024-03-20T03:04:11.470Z,543.00
2024-03-20T03:05:11.510Z,544.00
2024-03-20T03:06:12.072Z,542.00
2024-03-20T03:07:11.688Z,542.00
2024-03-20T03:08:11.780Z,546.00
2024-03-20T03:09:11.821Z,546.00
2024-03-20T03:10:11.956Z,549.00
2024-03-20T03:11:12.070Z,548.00
2024-03-20T03:12:12.061Z,548.00
2024-03-20T03:13:12.158Z,545.00
2024-03-20T03:14:12.238Z,542.00
2024-03-20T03:15:12.238Z,545.00
2024-03-20T03:16:12.278Z,547.00
2024-03-20T03:17:12.363Z,547.00
2024-03-20T03:18:12.404Z,549.00
2024-03-20T03:19:12.513Z,548.00
2024-03-20T03:20:12.581Z,550.00
2024-03-20T03:21:12.625Z,550.00
2024-03-20T03:22:12.703Z,549.00
2024-03-20T03:23:12.823Z,548.00
2024-03-20T03:24:12.855Z,548.00
2024-03-20T03:25:12.966Z,550.00
2024-03-20T03:26:13.010Z,552.00
2024-03-20T03:27:13.089Z,552.00
2024-03-20T03:28:13.208Z,552.00
2024-03-20T03:29:13.258Z,549.00
2024-03-20T03:30:13.378Z,547.00
2024-03-20T03:31:13.489Z,547.00
2024-03-20T03:32:13.529Z,546.00
2024-03-20T03:33:13.593Z,545.00
2024-03-20T03:34:13.700Z,541.00
2024-03-20T03:35:13.764Z,538.00
2024-03-20T03:36:13.810Z,538.00
2024-03-20T03:37:13.848Z,540.00
2024-03-20T03:38:13.938Z,542.00
2024-03-20T03:39:13.979Z,542.00
2024-03-20T03:40:14.053Z,543.00
2024-03-20T03:41:17.241Z,542.00
2024-03-20T03:42:14.083Z,541.00
2024-03-20T03:43:14.129Z,541.00
2024-03-20T03:44:14.125Z,540.00
2024-03-20T03:45:14.115Z,538.00
2024-03-20T03:46:14.128Z,537.00
2024-03-20T03:47:14.215Z,539.00
2024-03-20T03:48:14.144Z,539.00
2024-03-20T03:49:14.169Z,541.00
2024-03-20T03:50:14.172Z,542.00
2024-03-20T03:51:14.225Z,542.00
2024-03-20T03:52:14.232Z,541.00
2024-03-20T03:53:14.241Z,542.00
2024-03-20T03:54:14.252Z,543.00
2024-03-20T03:55:14.251Z,542.00
2024-03-20T03:56:15.098Z,544.00
2024-03-20T03:57:14.277Z,546.00
2024-03-20T03:58:14.282Z,547.00
2024-03-20T03:59:14.293Z,548.00
2024-03-20T04:00:14.340Z,551.00
2024-03-20T04:01:14.342Z,552.00
2024-03-20T04:02:14.307Z,554.00
2024-03-20T04:03:14.372Z,554.00
2024-03-20T04:04:14.357Z,552.00
2024-03-20T04:05:14.367Z,551.00
2024-03-20T04:06:14.388Z,551.00
2024-03-20T04:07:14.374Z,549.00
2024-03-20T04:08:14.402Z,548.00
2024-03-20T04:09:14.385Z,547.00
2024-03-20T04:10:14.428Z,547.00
2024-03-20T04:11:14.398Z,550.00
2024-03-20T04:12:14.405Z,549.00
2024-03-20T04:13:14.436Z,550.00
2024-03-20T04:14:14.463Z,548.00
2024-03-20T04:15:14.448Z,550.00
2024-03-20T04:16:14.505Z,549.00
2024-03-20T04:17:14.569Z,546.00
2024-03-20T04:18:14.520Z,547.00
2024-03-20T04:19:14.539Z,545.00
2024-03-20T04:20:14.543Z,543.00
2024-03-20T04:21:21.724Z,560.00
2024-03-20T04:22:21.739Z,550.00
2024-03-20T04:23:21.728Z,550.00
2024-03-20T04:24:21.747Z,549.00
2024-03-20T04:25:21.712Z,553.00
2024-03-20T04:26:21.708Z,551.00
2024-03-20T04:27:21.688Z,555.00
2024-03-20T04:28:21.692Z,556.00
2024-03-20T04:29:21.679Z,559.00
2024-03-20T04:30:21.670Z,561.00
2024-03-20T04:31:28.890Z,571.00
2024-03-20T04:32:28.893Z,564.00
2024-03-20T04:33:28.879Z,562.00
2024-03-20T04:34:28.912Z,559.00
2024-03-20T04:35:28.941Z,559.00
2024-03-20T04:36:28.925Z,560.00
2024-03-20T04:37:28.903Z,559.00
2024-03-20T04:38:28.911Z,559.00
2024-03-20T04:39:28.963Z,556.00
2024-03-20T04:40:28.932Z,554.00
2024-03-20T04:41:28.964Z,556.00
2024-03-20T04:42:28.936Z,556.00
2024-03-20T04:43:28.905Z,558.00
2024-03-20T04:44:28.914Z,560.00
2024-03-20T04:45:28.962Z,565.00
2024-03-20T04:46:28.921Z,565.00
2024-03-20T04:47:28.948Z,564.00
2024-03-20T04:48:28.999Z,563.00
2024-03-20T04:49:28.940Z,564.00
2024-03-20T04:50:28.980Z,562.00
2024-03-20T04:51:29.015Z,560.00
2024-03-20T04:52:29.004Z,557.00
2024-03-20T04:53:29.040Z,558.00
2024-03-20T04:54:29.006Z,561.00
2024-03-20T04:55:29.059Z,562.00
2024-03-20T04:56:29.096Z,562.00
2024-03-20T04:57:29.174Z,562.00
2024-03-20T04:58:29.221Z,558.00
2024-03-20T04:59:29.281Z,557.00
2024-03-20T05:00:29.354Z,557.00
2024-03-20T05:01:29.393Z,557.00
2024-03-20T05:02:29.402Z,559.00
2024-03-20T05:03:29.469Z,561.00
2024-03-20T05:04:29.572Z,564.00
2024-03-20T05:05:29.628Z,564.00
2024-03-20T05:06:29.725Z,561.00
2024-03-20T05:07:29.781Z,560.00
2024-03-20T05:08:29.846Z,557.00
2024-03-20T05:09:29.912Z,559.00
2024-03-20T05:10:29.970Z,560.00
2024-03-20T05:11:30.009Z,560.00
2024-03-20T05:12:30.086Z,556.00
2024-03-20T05:13:30.119Z,554.00
2024-03-20T05:14:30.181Z,554.00
2024-03-20T05:15:30.278Z,555.00
2024-03-20T05:16:30.282Z,553.00
2024-03-20T05:17:30.335Z,553.00
2024-03-20T05:18:30.421Z,552.00
2024-03-20T05:19:30.439Z,554.00
2024-03-20T05:20:30.489Z,551.00
2024-03-20T05:21:30.543Z,551.00
2024-03-20T05:22:30.598Z,551.00
2024-03-20T05:23:30.656Z,552.00
2024-03-20T05:24:30.691Z,553.00
2024-03-20T05:25:30.700Z,554.00
2024-03-20T05:26:30.723Z,554.00
2024-03-20T05:27:30.777Z,555.00
2024-03-20T05:28:30.864Z,556.00
2024-03-20T05:29:30.925Z,555.00
2024-03-20T05:30:30.941Z,554.00
2024-03-20T05:31:30.975Z,550.00
2024-03-20T05:32:30.948Z,551.00
2024-03-20T05:33:31.061Z,553.00
2024-03-20T05:34:31.015Z,551.00
2024-03-20T05:35:31.069Z,553.00
2024-03-20T05:36:31.155Z,551.00
2024-03-20T05:37:31.111Z,548.00
2024-03-20T05:38:31.188Z,547.00
2024-03-20T05:39:31.195Z,548.00
2024-03-20T05:40:31.242Z,548.00
2024-03-20T05:41:31.360Z,550.00
2024-03-20T05:42:31.440Z,547.00
2024-03-20T05:43:31.499Z,547.00
2024-03-20T05:44:31.536Z,546.00
2024-03-20T05:45:31.623Z,547.00
2024-03-20T05:46:31.652Z,548.00
2024-03-20T05:47:31.665Z,550.00
2024-03-20T05:48:31.686Z,551.00
2024-03-20T05:49:31.672Z,551.00
2024-03-20T05:50:31.722Z,549.00
2024-03-20T05:51:31.750Z,549.00
2024-03-20T05:52:31.735Z,550.00
2024-03-20T05:53:31.733Z,550.00
2024-03-20T05:54:31.850Z,551.00
2024-03-20T05:55:31.861Z,550.00
2024-03-20T05:56:31.896Z,550.00
2024-03-20T05:57:31.955Z,551.00
2024-03-20T05:58:31.988Z,550.00
2024-03-20T05:59:32.065Z,549.00
2024-03-20T06:00:32.170Z,548.00
2024-03-20T06:01:32.169Z,547.00
2024-03-20T06:02:32.212Z,548.00
2024-03-20T06:03:32.288Z,549.00
2024-03-20T06:04:32.355Z,548.00
2024-03-20T06:05:32.398Z,549.00
2024-03-20T06:06:32.486Z,551.00
2024-03-20T06:07:32.529Z,553.00
2024-03-20T06:09:32.578Z,554.00
2024-03-20T06:10:32.602Z,554.00
2024-03-20T06:11:32.652Z,552.00
2024-03-20T06:12:32.617Z,551.00
2024-03-20T06:13:32.661Z,549.00
2024-03-20T06:14:32.617Z,551.00
2024-03-20T06:15:32.633Z,549.00
2024-03-20T06:16:32.687Z,552.00
2024-03-20T06:17:32.646Z,552.00
2024-03-20T06:18:32.673Z,554.00
2024-03-20T06:19:32.653Z,554.00
2024-03-20T06:20:32.653Z,553.00
2024-03-20T06:21:32.678Z,557.00
2024-03-20T06:22:32.648Z,553.00
2024-03-20T06:23:32.669Z,549.00
2024-03-20T06:24:32.653Z,545.00
2024-03-20T06:25:32.671Z,542.00
2024-03-20T06:26:32.691Z,543.00
2024-03-20T06:27:32.676Z,545.00
2024-03-20T06:28:32.693Z,547.00
2024-03-20T06:29:32.690Z,550.00
2024-03-20T06:30:32.705Z,552.00
2024-03-20T06:31:32.720Z,551.00
2024-03-20T06:32:32.719Z,551.00
2024-03-20T06:33:32.757Z,551.00
2024-03-20T06:34:33.784Z,553.00
2024-03-20T06:35:32.718Z,551.00
2024-03-20T06:36:32.731Z,552.00
2024-03-20T06:37:32.754Z,552.00
2024-03-20T06:38:32.725Z,552.00
2024-03-20T06:39:32.732Z,553.00
2024-03-20T06:40:32.739Z,554.00
2024-03-20T06:41:32.746Z,554.00
2024-03-20T06:42:32.818Z,553.00
2024-03-20T06:43:32.728Z,553.00
2024-03-20T06:44:32.728Z,555.00
2024-03-20T06:45:32.773Z,556.00
2024-03-20T06:46:32.779Z,554.00
2024-03-20T06:47:32.744Z,553.00
2024-03-20T06:48:32.748Z,555.00
2024-03-20T06:49:32.746Z,556.00
2024-03-20T06:50:32.755Z,555.00
2024-03-20T06:51:32.783Z,557.00
2024-03-20T06:52:32.751Z,557.00
2024-03-20T06:53:32.752Z,555.00
2024-03-20T06:54:32.775Z,555.00
2024-03-20T06:55:32.836Z,555.00
2024-03-20T06:56:32.905Z,555.00
2024-03-20T06:57:32.958Z,555.00
2024-03-20T06:58:33.012Z,555.00
2024-03-20T06:59:33.073Z,556.00
2024-03-20T07:00:33.263Z,564.00
2024-03-20T07:01:33.181Z,573.00
2024-03-20T07:02:33.243Z,621.00
2024-03-20T07:03:33.337Z,630.00
2024-03-20T07:04:33.381Z,633.00
2024-03-20T07:05:33.438Z,639.00
2024-03-20T07:06:33.513Z,655.00
2024-03-20T07:07:33.565Z,667.00
2024-03-20T07:08:33.652Z,710.00
2024-03-20T07:09:33.688Z,700.00
2024-03-20T07:10:35.234Z,705.00
2024-03-20T07:11:33.779Z,714.00
2024-03-20T07:12:33.829Z,726.00
2024-03-20T07:13:33.847Z,745.00
2024-03-20T07:14:33.890Z,775.00
2024-03-20T07:15:33.940Z,789.00
2024-03-20T07:16:33.983Z,811.00
2024-03-20T07:17:34.027Z,822.00
2024-03-20T07:18:34.082Z,826.00
2024-03-20T07:19:34.148Z,830.00
2024-03-20T07:20:34.179Z,844.00
2024-03-20T07:21:34.254Z,856.00
2024-03-20T07:22:34.265Z,860.00
2024-03-20T07:23:34.292Z,867.00
2024-03-20T07:24:34.354Z,871.00
2024-03-20T07:25:35.830Z,888.00
2024-03-20T07:26:34.365Z,900.00
2024-03-20T07:27:34.343Z,904.00
2024-03-20T07:28:34.308Z,912.00
2024-03-20T07:29:34.321Z,924.00
2024-03-20T07:30:35.054Z,928.00
2024-03-20T07:31:34.330Z,939.00
2024-03-20T07:32:34.321Z,944.00
2024-03-20T07:33:34.326Z,952.00
2024-03-20T07:34:34.293Z,961.00
2024-03-20T07:35:34.297Z,984.00
2024-03-20T07:36:34.327Z,985.00
2024-03-20T07:37:34.288Z,985.00
2024-03-20T07:38:34.289Z,989.00
2024-03-20T07:39:34.303Z,998.00
2024-03-20T07:40:34.278Z,1006.00
2024-03-20T07:41:34.254Z,1015.00
2024-03-20T07:42:34.288Z,1025.00
2024-03-20T07:43:34.346Z,1031.00
2024-03-20T07:44:34.342Z,1037.00
2024-03-20T07:45:34.268Z,1046.00
2024-03-20T07:46:34.235Z,1059.00
2024-03-20T07:47:34.223Z,1066.00
2024-03-20T07:48:34.208Z,1065.00
2024-03-20T07:49:34.207Z,1070.00
2024-03-20T07:50:34.254Z,1078.00
2024-03-20T07:51:34.209Z,1085.00
2024-03-20T07:52:34.200Z,1102.00
2024-03-20T07:53:34.172Z,1106.00
2024-03-20T07:54:34.213Z,1109.00
2024-03-20T07:55:34.213Z,1104.00
2024-03-20T07:56:34.267Z,1098.00
2024-03-20T07:57:34.193Z,1096.00
2024-03-20T07:58:34.136Z,1102.00
2024-03-20T07:59:34.146Z,1102.00
2024-03-20T08:00:34.162Z,1114.00
2024-03-20T08:01:34.168Z,1176.00
2024-03-20T08:02:34.131Z,1207.00
2024-03-20T08:03:34.143Z,1180.00
2024-03-20T08:04:35.080Z,1183.00
2024-03-20T08:05:34.081Z,1197.00
2024-03-20T08:06:34.174Z,1189.00
2024-03-20T08:07:34.095Z,1191.00
2024-03-20T08:08:34.061Z,1192.00
2024-03-20T08:09:34.096Z,1189.00
2024-03-20T08:10:34.047Z,1190.00
2024-03-20T08:11:34.079Z,1190.00
2024-03-20T08:12:34.063Z,1202.00
2024-03-20T08:13:34.049Z,1209.00
2024-03-20T08:14:34.037Z,1214.00
2024-03-20T08:15:34.032Z,1211.00
2024-03-20T08:16:34.863Z,1209.00
2024-03-20T08:17:34.012Z,1215.00
2024-03-20T08:18:33.996Z,1219.00
2024-03-20T08:19:33.998Z,1220.00
2024-03-20T08:20:33.952Z,1213.00
2024-03-20T08:21:33.987Z,1218.00
2024-03-20T08:22:33.972Z,1219.00
2024-03-20T08:23:33.943Z,1227.00
2024-03-20T08:24:33.951Z,1253.00
2024-03-20T08:25:33.917Z,1241.00
2024-03-20T08:26:33.958Z,1245.00
2024-03-20T08:27:33.938Z,1244.00
2024-03-20T08:28:33.942Z,1246.00
2024-03-20T08:29:33.925Z,1250.00
2024-03-20T08:30:34.035Z,1262.00
2024-03-20T08:31:33.926Z,1289.00
2024-03-20T08:32:33.952Z,1323.00
2024-03-20T08:33:33.934Z,1318.00
2024-03-20T08:34:33.889Z,1314.00
2024-03-20T08:35:33.963Z,1310.00
2024-03-20T08:36:33.948Z,1318.00
2024-03-20T08:37:33.909Z,1345.00
2024-03-20T08:38:33.882Z,1350.00
2024-03-20T08:39:33.937Z,1353.00
2024-03-20T08:40:33.864Z,1351.00
2024-03-20T08:41:33.869Z,1358.00
2024-03-20T08:42:33.872Z,1356.00
2024-03-20T08:43:33.869Z,1358.00
2024-03-20T08:44:33.870Z,1362.00
2024-03-20T08:45:33.894Z,1366.00
2024-03-20T08:46:34.063Z,1361.00
2024-03-20T08:47:33.892Z,1354.00
2024-03-20T08:48:33.909Z,1360.00
2024-03-20T08:49:33.889Z,1355.00
2024-03-20T08:50:33.901Z,1355.00
2024-03-20T08:51:33.915Z,1361.00
2024-03-20T08:52:33.950Z,1370.00
2024-03-20T08:53:33.920Z,1282.00
2024-03-20T08:54:33.930Z,1248.00
2024-03-20T08:55:33.957Z,1257.00
2024-03-20T08:56:33.991Z,1263.00
2024-03-20T08:57:35.202Z,1291.00
2024-03-20T08:58:34.557Z,1292.00
2024-03-20T08:59:34.061Z,1347.00
2024-03-20T09:00:34.129Z,1366.00
2024-03-20T09:01:34.202Z,1340.00
2024-03-20T09:02:34.162Z,1321.00
2024-03-20T09:03:34.212Z,1116.00
2024-03-20T09:04:34.276Z,1030.00
2024-03-20T09:05:34.350Z,1121.00
2024-03-20T09:06:34.420Z,1151.00
2024-03-20T09:07:34.463Z,1168.00
2024-03-20T09:08:34.503Z,1169.00
2024-03-20T09:09:36.423Z,1179.00
2024-03-20T09:10:34.652Z,1178.00
2024-03-20T09:11:34.805Z,1178.00
2024-03-20T09:12:34.800Z,1173.00
2024-03-20T09:13:34.848Z,1171.00
2024-03-20T09:14:34.994Z,1179.00
2024-03-20T09:15:35.059Z,1184.00
2024-03-20T09:16:35.065Z,1156.00
2024-03-20T09:17:35.113Z,1080.00
2024-03-20T09:18:35.232Z,1096.00
2024-03-20T09:19:35.230Z,1107.00
2024-03-20T09:20:35.309Z,1148.00
2024-03-20T09:21:35.424Z,1143.00
2024-03-20T09:22:35.434Z,1147.00
2024-03-20T09:23:35.490Z,1147.00
2024-03-20T09:24:35.800Z,1123.00
2024-03-20T09:25:35.645Z,1121.00
2024-03-20T09:26:35.678Z,1128.00
2024-03-20T09:27:35.731Z,1137.00
2024-03-20T09:28:35.755Z,1151.00
2024-03-20T09:29:35.810Z,1174.00
2024-03-20T09:30:35.888Z,1178.00
2024-03-20T09:31:35.990Z,1161.00
2024-03-20T09:32:36.126Z,1148.00
2024-03-20T09:33:36.110Z,1152.00
2024-03-20T09:34:36.161Z,1154.00
2024-03-20T09:35:36.232Z,1156.00
2024-03-20T09:36:36.310Z,1154.00
2024-03-20T09:37:37.367Z,1157.00
2024-03-20T09:38:36.303Z,1154.00
2024-03-20T09:39:36.313Z,1152.00
2024-03-20T09:40:36.291Z,1133.00
2024-03-20T09:41:36.313Z,1132.00
2024-03-20T09:42:36.318Z,1139.00
2024-03-20T09:43:36.308Z,1142.00
2024-03-20T09:44:36.317Z,1141.00
2024-03-20T09:45:36.401Z,1136.00
2024-03-20T09:46:37.389Z,1129.00
2024-03-20T09:47:36.513Z,1082.00
2024-03-20T09:48:42.356Z,1087.00
2024-03-20T09:49:37.612Z,1082.00
2024-03-20T09:50:36.634Z,1002.00
2024-03-20T09:51:36.652Z,1020.00
2024-03-20T09:52:36.624Z,1017.00
2024-03-20T09:53:36.612Z,1010.00
2024-03-20T09:54:36.634Z,1004.00
2024-03-20T09:55:36.630Z,996.00
2024-03-20T09:56:37.094Z,980.00
2024-03-20T09:57:36.699Z,962.00
2024-03-20T09:58:36.661Z,963.00
2024-03-20T09:59:36.679Z,936.00
2024-03-20T10:00:36.698Z,965.00
2024-03-20T10:01:36.689Z,970.00
2024-03-20T10:02:36.700Z,980.00
2024-03-20T10:03:36.706Z,983.00
2024-03-20T10:04:42.541Z,988.00
2024-03-20T10:05:37.725Z,996.00
2024-03-20T10:06:37.085Z,1004.00
2024-03-20T10:07:36.714Z,1010.00
2024-03-20T10:08:36.729Z,1014.00
2024-03-20T10:09:36.747Z,1012.00
2024-03-20T10:10:36.736Z,1015.00
2024-03-20T10:11:36.740Z,1022.00
2024-03-20T10:12:36.733Z,1038.00
2024-03-20T10:13:36.733Z,1042.00
2024-03-20T10:14:36.777Z,1045.00
2024-03-20T10:15:36.868Z,1056.00
2024-03-20T10:16:37.117Z,1059.00
2024-03-20T10:17:36.925Z,1058.00
2024-03-20T10:18:37.007Z,1056.00
2024-03-20T10:19:38.051Z,1053.00
2024-03-20T10:20:37.076Z,1062.00
2024-03-20T10:21:37.047Z,1116.00
2024-03-20T10:22:43.257Z,1110.00
2024-03-20T10:23:37.988Z,1109.00
2024-03-20T10:24:37.003Z,1108.00
2024-03-20T10:25:36.995Z,1108.00
2024-03-20T10:26:37.012Z,1100.00
2024-03-20T10:27:36.994Z,1082.00
2024-03-20T10:28:37.001Z,1076.00
2024-03-20T10:29:37.000Z,1078.00
2024-03-20T10:30:36.995Z,1075.00
2024-03-20T10:31:36.979Z,1076.00
2024-03-20T10:32:36.995Z,1086.00
2024-03-20T10:33:37.051Z,1090.00
2024-03-20T10:34:37.171Z,1088.00
2024-03-20T10:35:37.166Z,1089.00
2024-03-20T10:36:37.590Z,1099.00
2024-03-20T10:37:37.322Z,1099.00
2024-03-20T10:38:37.402Z,1099.00
2024-03-20T10:39:37.453Z,1099.00
2024-03-20T10:40:37.504Z,1101.00
2024-03-20T10:41:37.616Z,1104.00
2024-03-20T10:42:37.743Z,1114.00
2024-03-20T10:43:37.732Z,1144.00
2024-03-20T10:44:37.784Z,1188.00
2024-03-20T10:45:37.854Z,1234.00
2024-03-20T10:46:37.891Z,1261.00
2024-03-20T10:47:37.961Z,1270.00
2024-03-20T10:48:38.051Z,1260.00
2024-03-20T10:49:38.056Z,1250.00
2024-03-20T10:50:38.085Z,1244.00
2024-03-20T10:51:38.634Z,1255.00
2024-03-20T10:52:38.210Z,1318.00
2024-03-20T10:53:38.226Z,1312.00
2024-03-20T10:54:38.277Z,1300.00
2024-03-20T10:55:38.332Z,1296.00
2024-03-20T10:56:38.335Z,1282.00
2024-03-20T10:57:38.422Z,1253.00
2024-03-20T10:58:38.452Z,1243.00
2024-03-20T10:59:38.472Z,1235.00
2024-03-20T11:00:38.540Z,1235.00
2024-03-20T11:01:38.585Z,1233.00
2024-03-20T11:02:38.642Z,1231.00
2024-03-20T11:03:38.704Z,1230.00
2024-03-20T11:04:38.731Z,1223.00
2024-03-20T11:05:38.775Z,1216.00
2024-03-20T11:06:38.826Z,1217.00
2024-03-20T11:07:38.865Z,1219.00
2024-03-20T11:08:38.900Z,1217.00
2024-03-20T11:09:38.988Z,1214.00
2024-03-20T11:10:39.119Z,1211.00
2024-03-20T11:11:39.099Z,1198.00
2024-03-20T11:12:39.167Z,1184.00
2024-03-20T11:13:39.199Z,1164.00
2024-03-20T11:14:39.249Z,1163.00
2024-03-20T11:15:39.324Z,1166.00
2024-03-20T11:16:39.361Z,1167.00
2024-03-20T11:17:39.524Z,1170.00
2024-03-20T11:18:39.510Z,1175.00
2024-03-20T11:19:39.713Z,1171.00
2024-03-20T11:20:39.628Z,1169.00
2024-03-20T11:21:39.691Z,1164.00
2024-03-20T11:22:39.724Z,1162.00
2024-03-20T11:23:39.785Z,1152.00
2024-03-20T11:24:39.854Z,1147.00
2024-03-20T11:25:39.895Z,1145.00
2024-03-20T11:26:39.945Z,1141.00
2024-03-20T11:27:40.046Z,1140.00
2024-03-20T11:28:40.091Z,1140.00
2024-03-20T11:29:40.142Z,1139.00
2024-03-20T11:30:40.183Z,1136.00
2024-03-20T11:31:40.246Z,1137.00
2024-03-20T11:32:40.324Z,1136.00
2024-03-20T11:33:40.370Z,1134.00
2024-03-20T11:34:40.437Z,1130.00
2024-03-20T11:35:40.511Z,1127.00
2024-03-20T11:36:40.610Z,1128.00
2024-03-20T11:37:40.598Z,1130.00
2024-03-20T11:38:40.667Z,1134.00
2024-03-20T11:39:40.752Z,1131.00
2024-03-20T11:40:40.797Z,1133.00
2024-03-20T11:41:41.109Z,1132.00
2024-03-20T11:42:40.917Z,1130.00
2024-03-20T11:43:40.982Z,1130.00
2024-03-20T11:44:41.026Z,1128.00
2024-03-20T11:45:41.122Z,1128.00
2024-03-20T11:46:41.188Z,1129.00
2024-03-20T11:47:41.255Z,1131.00
2024-03-20T11:48:41.267Z,1129.00
2024-03-20T11:49:41.300Z,1127.00
2024-03-20T11:50:41.366Z,1126.00
2024-03-20T11:51:41.498Z,1127.00
2024-03-20T11:52:41.517Z,1130.00
2024-03-20T11:53:41.562Z,1128.00
2024-03-20T11:54:41.669Z,1124.00
2024-03-20T11:55:41.717Z,1117.00
2024-03-20T11:56:41.760Z,1114.00
2024-03-20T11:57:41.852Z,1113.00
2024-03-20T11:58:41.871Z,1110.00
2024-03-20T11:59:41.943Z,1113.00
2024-03-20T12:00:42.031Z,1109.00
2024-03-20T12:01:42.159Z,1109.00
2024-03-20T12:02:42.145Z,1105.00
2024-03-20T12:03:42.225Z,1107.00
2024-03-20T12:04:42.282Z,1112.00
2024-03-20T12:05:42.338Z,1114.00
2024-03-20T12:06:42.424Z,1119.00
2024-03-20T12:07:42.480Z,1117.00
2024-03-20T12:08:42.527Z,1119.00
2024-03-20T12:09:42.645Z,1121.00
2024-03-20T12:10:42.633Z,1119.00
2024-03-20T12:11:42.741Z,1118.00
2024-03-20T12:12:42.768Z,1117.00
2024-03-20T12:13:42.841Z,1115.00
2024-03-20T12:14:42.896Z,1117.00
2024-03-20T12:15:42.966Z,1115.00
2024-03-20T12:16:43.049Z,1113.00
2024-03-20T12:17:43.090Z,1114.00
2024-03-20T12:18:43.181Z,1118.00
2024-03-20T12:19:43.212Z,1124.00
2024-03-20T12:20:43.256Z,1127.00
2024-03-20T12:21:43.325Z,1130.00
2024-03-20T12:22:43.374Z,1131.00